BAW2231 EGKK-VTBS
Flight info
| Callsign | BAW2231 |
|---|---|
| Flight time | N/A |
| Altitude | 35000 |
| Route | ODVIK Y311 DVR UL9 KONAN UL607 FERDI DCT REMBA DCT LIRSU DCT BANUX DCT BABEG DCT KONIN DCT ERKIR DCT KFT DCT PODET DCT ZINPE DCT ETIDA DCT EKSOL DCT UDROS UM859 KARDE UN644 FALAZ/N0488F370 UN644 ROLIN DCT FOQUS DCT LAGAS DCT DISKA M737 VERCA M747 BODKA P130 MAMED B449 RANAH L750 BIROS/N0485F390 L750 MERUN G452 LKN R460 CEA DCT DOPID P646 PTN N895 BETNO G463 TARED DCT WILLA WILLA1C |
| Aircraft | B772/H-SDE2E3FGHIJ5LORVWXY/LB1D1 |
Departure
| Time | N/A |
|---|---|
| Airport | London Gatwick Airport (EGKK) |
Arrival
| Time | 2026-05-05 12:47 |
|---|---|
| Airport | Suvarnabhumi Airport (VTBS) |
| Time | Latitude | Longitude | Altitude | Speed | Heading |
|---|---|---|---|---|---|
| 2026-05-05 07:21 | 38.12331 | 58.86706 | 34835 ft | 521 kts | 123° |
| 2026-05-05 07:21 | 38.08563 | 58.94588 | 34833 ft | 522 kts | 123° |
| 2026-05-05 07:22 | 38.04824 | 59.02388 | 34835 ft | 521 kts | 123° |
| 2026-05-05 07:22 | 38.01031 | 59.10283 | 34837 ft | 521 kts | 123° |
| 2026-05-05 07:23 | 37.97268 | 59.18097 | 34852 ft | 524 kts | 123° |
| 2026-05-05 07:23 | 37.93475 | 59.25952 | 34852 ft | 527 kts | 123° |
| 2026-05-05 07:23 | 37.91543 | 59.29947 | 35118 ft | 530 kts | 123° |
| 2026-05-05 07:24 | 37.89634 | 59.33871 | 35664 ft | 525 kts | 125° |
| 2026-05-05 07:24 | 37.87506 | 59.37645 | 36190 ft | 520 kts | 129° |
| 2026-05-05 07:24 | 37.85338 | 59.41270 | 36540 ft | 521 kts | 130° |
| 2026-05-05 07:24 | 37.83141 | 59.44922 | 36861 ft | 522 kts | 130° |
| 2026-05-05 07:25 | 37.80944 | 59.48566 | 36873 ft | 525 kts | 130° |
| 2026-05-05 07:25 | 37.76534 | 59.55880 | 36888 ft | 522 kts | 130° |
| 2026-05-05 07:26 | 37.72114 | 59.63195 | 36884 ft | 524 kts | 130° |
| 2026-05-05 07:26 | 37.67634 | 59.70594 | 36874 ft | 523 kts | 130° |
| 2026-05-05 07:27 | 37.63221 | 59.77867 | 36882 ft | 523 kts | 130° |
| 2026-05-05 07:27 | 37.58789 | 59.85157 | 36883 ft | 523 kts | 130° |
| 2026-05-05 07:28 | 37.54363 | 59.92420 | 36876 ft | 523 kts | 130° |
| 2026-05-05 07:28 | 37.49934 | 59.99672 | 36892 ft | 524 kts | 130° |
| 2026-05-05 07:29 | 37.45483 | 60.06943 | 36886 ft | 524 kts | 130° |
| 2026-05-05 07:29 | 37.41034 | 60.14199 | 36894 ft | 524 kts | 130° |
| 2026-05-05 07:30 | 37.36588 | 60.21432 | 36900 ft | 524 kts | 130° |
| 2026-05-05 07:30 | 37.29908 | 60.32268 | 36891 ft | 524 kts | 130° |
| 2026-05-05 07:31 | 37.25432 | 60.39512 | 36896 ft | 524 kts | 130° |
| 2026-05-05 07:31 | 37.20932 | 60.46777 | 36892 ft | 525 kts | 130° |
| 2026-05-05 07:32 | 37.16454 | 60.53991 | 36905 ft | 525 kts | 130° |
| 2026-05-05 07:32 | 37.11957 | 60.61219 | 36903 ft | 526 kts | 130° |
| 2026-05-05 07:33 | 37.07472 | 60.68414 | 36889 ft | 524 kts | 130° |
| 2026-05-05 07:33 | 37.02960 | 60.75635 | 36897 ft | 525 kts | 131° |
| 2026-05-05 07:34 | 36.98473 | 60.82803 | 36895 ft | 524 kts | 130° |
| 2026-05-05 07:34 | 36.94157 | 60.90134 | 37044 ft | 525 kts | 127° |
| 2026-05-05 07:35 | 36.92081 | 60.93875 | 36913 ft | 527 kts | 127° |
| 2026-05-05 07:35 | 36.90004 | 60.97606 | 36910 ft | 524 kts | 127° |
| 2026-05-05 07:35 | 36.85805 | 61.05110 | 36904 ft | 526 kts | 127° |
| 2026-05-05 07:36 | 36.81601 | 61.12586 | 36900 ft | 524 kts | 127° |
| 2026-05-05 07:36 | 36.77383 | 61.20055 | 36915 ft | 526 kts | 127° |
| 2026-05-05 07:37 | 36.73181 | 61.27474 | 36922 ft | 526 kts | 127° |
| 2026-05-05 07:37 | 36.68966 | 61.34898 | 36928 ft | 525 kts | 127° |
| 2026-05-05 07:38 | 36.64745 | 61.42312 | 36920 ft | 527 kts | 127° |
| 2026-05-05 07:38 | 36.60500 | 61.49704 | 36941 ft | 527 kts | 128° |
| 2026-05-05 07:39 | 36.56179 | 61.57066 | 36937 ft | 526 kts | 128° |
| 2026-05-05 07:39 | 36.51868 | 61.64398 | 36953 ft | 527 kts | 128° |
| 2026-05-05 07:40 | 36.47554 | 61.71724 | 36950 ft | 526 kts | 128° |
| 2026-05-05 07:40 | 36.43216 | 61.79076 | 36952 ft | 529 kts | 128° |
| 2026-05-05 07:41 | 36.38878 | 61.86416 | 36972 ft | 528 kts | 128° |
| 2026-05-05 07:41 | 36.34537 | 61.93744 | 36965 ft | 528 kts | 128° |
| 2026-05-05 07:42 | 36.30188 | 62.01070 | 36977 ft | 529 kts | 128° |
| 2026-05-05 07:42 | 36.25848 | 62.08366 | 36978 ft | 527 kts | 128° |
| 2026-05-05 07:43 | 36.21499 | 62.15661 | 36988 ft | 528 kts | 128° |
| 2026-05-05 07:43 | 36.17124 | 62.22986 | 36995 ft | 529 kts | 129° |
| 2026-05-05 07:44 | 36.12752 | 62.30289 | 37001 ft | 528 kts | 128° |
| 2026-05-05 07:44 | 36.08376 | 62.37583 | 36995 ft | 529 kts | 128° |
| 2026-05-05 07:45 | 36.03997 | 62.44867 | 36997 ft | 529 kts | 128° |
| 2026-05-05 07:45 | 35.99622 | 62.52130 | 36993 ft | 530 kts | 128° |
| 2026-05-05 07:46 | 35.95214 | 62.59432 | 37000 ft | 529 kts | 128° |
| 2026-05-05 07:46 | 35.90787 | 62.66747 | 37008 ft | 533 kts | 129° |
| 2026-05-05 07:47 | 35.86370 | 62.74033 | 36995 ft | 530 kts | 129° |
| 2026-05-05 07:47 | 35.81935 | 62.81334 | 37006 ft | 531 kts | 129° |
| 2026-05-05 07:48 | 35.77515 | 62.88593 | 37005 ft | 530 kts | 129° |
| 2026-05-05 07:48 | 35.73096 | 62.95834 | 37000 ft | 533 kts | 129° |
| 2026-05-05 07:49 | 35.68617 | 63.03160 | 37008 ft | 532 kts | 129° |
| 2026-05-05 07:49 | 35.64177 | 63.10408 | 37020 ft | 532 kts | 129° |
| 2026-05-05 07:50 | 35.59687 | 63.17720 | 37029 ft | 534 kts | 129° |
| 2026-05-05 07:50 | 35.55197 | 63.24961 | 37064 ft | 535 kts | 129° |
| 2026-05-05 07:51 | 35.50692 | 63.32149 | 37062 ft | 534 kts | 129° |
| 2026-05-05 07:51 | 35.46111 | 63.39446 | 37100 ft | 538 kts | 129° |
| 2026-05-05 07:52 | 35.41571 | 63.46664 | 37095 ft | 536 kts | 129° |
| 2026-05-05 07:52 | 35.37013 | 63.53898 | 37105 ft | 538 kts | 130° |
| 2026-05-05 07:53 | 35.32452 | 63.61122 | 37133 ft | 538 kts | 129° |
| 2026-05-05 07:53 | 35.27875 | 63.68370 | 37122 ft | 538 kts | 130° |
| 2026-05-05 07:54 | 35.23334 | 63.75582 | 37126 ft | 537 kts | 129° |
| 2026-05-05 07:54 | 35.18752 | 63.82841 | 37178 ft | 541 kts | 130° |
| 2026-05-05 07:55 | 35.14181 | 63.90070 | 37219 ft | 539 kts | 130° |
| 2026-05-05 07:55 | 35.09569 | 63.97346 | 37237 ft | 541 kts | 130° |
| 2026-05-05 07:56 | 35.04973 | 64.04583 | 37233 ft | 541 kts | 130° |
| 2026-05-05 07:56 | 35.00350 | 64.11847 | 37263 ft | 543 kts | 130° |
| 2026-05-05 07:57 | 34.95742 | 64.19070 | 37307 ft | 543 kts | 130° |
| 2026-05-05 07:57 | 34.91098 | 64.26338 | 37354 ft | 544 kts | 130° |
| 2026-05-05 07:58 | 34.86411 | 64.33656 | 37363 ft | 544 kts | 130° |
| 2026-05-05 07:58 | 34.81773 | 64.40884 | 37396 ft | 546 kts | 130° |
| 2026-05-05 07:59 | 34.77090 | 64.48166 | 37409 ft | 543 kts | 130° |
| 2026-05-05 07:59 | 34.72427 | 64.55402 | 37432 ft | 546 kts | 130° |
| 2026-05-05 08:00 | 34.67737 | 64.62666 | 37455 ft | 546 kts | 130° |
| 2026-05-05 08:00 | 34.63013 | 64.69967 | 37445 ft | 546 kts | 130° |
| 2026-05-05 08:01 | 34.58324 | 64.77197 | 37466 ft | 548 kts | 130° |
| 2026-05-05 08:01 | 34.53613 | 64.84448 | 37464 ft | 548 kts | 130° |
| 2026-05-05 08:02 | 34.48896 | 64.91693 | 37485 ft | 547 kts | 130° |
| 2026-05-05 08:02 | 34.44189 | 64.98891 | 37488 ft | 548 kts | 130° |
| 2026-05-05 08:03 | 34.39476 | 65.06081 | 37495 ft | 547 kts | 130° |
| 2026-05-05 08:03 | 34.34736 | 65.13300 | 37508 ft | 550 kts | 130° |
| 2026-05-05 08:04 | 34.29956 | 65.20565 | 37508 ft | 550 kts | 130° |
| 2026-05-05 08:04 | 34.25229 | 65.27734 | 37519 ft | 548 kts | 130° |
| 2026-05-05 08:05 | 34.20468 | 65.34940 | 37517 ft | 552 kts | 130° |
| 2026-05-05 08:05 | 34.15673 | 65.42184 | 37510 ft | 551 kts | 130° |
| 2026-05-05 08:06 | 34.10877 | 65.49416 | 37516 ft | 552 kts | 130° |
| 2026-05-05 08:06 | 34.06105 | 65.56596 | 37518 ft | 553 kts | 130° |
| 2026-05-05 08:07 | 34.01273 | 65.63873 | 37521 ft | 552 kts | 130° |
| 2026-05-05 08:07 | 33.96461 | 65.71107 | 37508 ft | 552 kts | 131° |
| 2026-05-05 08:08 | 33.91681 | 65.78275 | 37508 ft | 553 kts | 131° |
| 2026-05-05 08:08 | 33.86812 | 65.85563 | 37501 ft | 553 kts | 130° |
| 2026-05-05 08:09 | 33.82021 | 65.92721 | 37494 ft | 553 kts | 131° |
| 2026-05-05 08:09 | 33.77182 | 65.99935 | 37496 ft | 553 kts | 131° |
| 2026-05-05 08:10 | 33.72364 | 66.07102 | 37496 ft | 553 kts | 130° |
| 2026-05-05 08:10 | 33.67514 | 66.14304 | 37491 ft | 554 kts | 130° |
| 2026-05-05 08:11 | 33.62654 | 66.21506 | 37479 ft | 555 kts | 130° |
| 2026-05-05 08:11 | 33.57778 | 66.28718 | 37458 ft | 557 kts | 131° |
| 2026-05-05 08:12 | 33.52920 | 66.35887 | 37461 ft | 557 kts | 131° |
| 2026-05-05 08:12 | 33.48038 | 66.43081 | 37471 ft | 556 kts | 131° |
| 2026-05-05 08:13 | 33.43169 | 66.50224 | 37505 ft | 558 kts | 131° |
| 2026-05-05 08:13 | 33.38236 | 66.57429 | 37510 ft | 557 kts | 131° |
| 2026-05-05 08:14 | 33.33346 | 66.64556 | 37520 ft | 556 kts | 130° |
| 2026-05-05 08:14 | 33.28408 | 66.71739 | 37519 ft | 559 kts | 132° |
| 2026-05-05 08:15 | 33.23460 | 66.78925 | 37523 ft | 557 kts | 131° |
| 2026-05-05 08:15 | 33.18557 | 66.86031 | 37549 ft | 560 kts | 131° |
| 2026-05-05 08:16 | 33.13594 | 66.93209 | 37545 ft | 558 kts | 132° |
| 2026-05-05 08:16 | 33.08629 | 67.00376 | 37561 ft | 561 kts | 131° |
| 2026-05-05 08:17 | 33.03669 | 67.07523 | 37559 ft | 561 kts | 131° |
| 2026-05-05 08:17 | 32.98691 | 67.14681 | 37540 ft | 561 kts | 131° |
| 2026-05-05 08:18 | 32.93720 | 67.21815 | 37530 ft | 560 kts | 132° |
| 2026-05-05 08:18 | 32.88744 | 67.28943 | 37504 ft | 564 kts | 131° |
| 2026-05-05 08:19 | 32.83708 | 67.36144 | 37473 ft | 562 kts | 131° |
| 2026-05-05 08:19 | 32.78732 | 67.43243 | 37470 ft | 562 kts | 131° |
| 2026-05-05 08:20 | 32.73644 | 67.50275 | 37432 ft | 561 kts | 133° |
| 2026-05-05 08:20 | 32.68468 | 67.57198 | 37445 ft | 559 kts | 133° |
| 2026-05-05 08:21 | 32.63278 | 67.64137 | 37418 ft | 562 kts | 133° |
| 2026-05-05 08:21 | 32.58103 | 67.71055 | 37397 ft | 562 kts | 134° |
| 2026-05-05 08:22 | 32.52909 | 67.77989 | 37387 ft | 561 kts | 134° |
| 2026-05-05 08:22 | 32.47792 | 67.84943 | 37390 ft | 561 kts | 131° |
| 2026-05-05 08:23 | 32.42870 | 67.92057 | 37383 ft | 563 kts | 131° |
| 2026-05-05 08:23 | 32.37901 | 67.99220 | 37388 ft | 563 kts | 131° |
| 2026-05-05 08:24 | 32.32924 | 68.06367 | 37397 ft | 562 kts | 131° |
| 2026-05-05 08:24 | 32.27927 | 68.13520 | 37417 ft | 563 kts | 131° |
| 2026-05-05 08:25 | 32.22954 | 68.20621 | 37409 ft | 562 kts | 131° |
| 2026-05-05 08:25 | 32.17981 | 68.27705 | 37409 ft | 565 kts | 131° |
| 2026-05-05 08:26 | 32.12947 | 68.34860 | 37411 ft | 564 kts | 131° |
| 2026-05-05 08:26 | 32.07963 | 68.41930 | 37402 ft | 563 kts | 131° |
| 2026-05-05 08:27 | 32.02968 | 68.49002 | 37389 ft | 565 kts | 131° |
| 2026-05-05 08:27 | 31.97943 | 68.56103 | 37377 ft | 564 kts | 131° |
| 2026-05-05 08:28 | 31.92916 | 68.63193 | 37364 ft | 564 kts | 131° |
| 2026-05-05 08:28 | 31.87897 | 68.70258 | 37323 ft | 564 kts | 131° |
| 2026-05-05 08:29 | 31.82870 | 68.77322 | 37320 ft | 563 kts | 131° |
| 2026-05-05 08:30 | 31.75298 | 68.87936 | 37304 ft | 565 kts | 131° |
| 2026-05-05 08:30 | 31.70272 | 68.94966 | 37290 ft | 563 kts | 131° |
| 2026-05-05 08:31 | 31.65239 | 69.02029 | 37296 ft | 564 kts | 130° |
| 2026-05-05 08:31 | 31.60402 | 69.09235 | 37290 ft | 566 kts | 129° |
| 2026-05-05 08:32 | 31.55541 | 69.16482 | 37281 ft | 565 kts | 129° |
| 2026-05-05 08:32 | 31.50690 | 69.23688 | 37263 ft | 566 kts | 129° |
| 2026-05-05 08:33 | 31.45807 | 69.30919 | 37245 ft | 563 kts | 129° |
| 2026-05-05 08:33 | 31.40943 | 69.38103 | 37230 ft | 563 kts | 129° |
| 2026-05-05 08:34 | 31.35989 | 69.45181 | 37242 ft | 564 kts | 135° |
| 2026-05-05 08:34 | 31.30149 | 69.51159 | 37258 ft | 560 kts | 143° |
| 2026-05-05 08:35 | 31.24105 | 69.56896 | 37263 ft | 560 kts | 143° |
| 2026-05-05 08:35 | 31.18050 | 69.62631 | 37257 ft | 560 kts | 143° |
| 2026-05-05 08:36 | 31.11986 | 69.68363 | 37242 ft | 560 kts | 144° |
| 2026-05-05 08:36 | 31.05930 | 69.74080 | 37240 ft | 558 kts | 144° |
| 2026-05-05 08:37 | 30.99887 | 69.79772 | 37245 ft | 562 kts | 144° |
| 2026-05-05 08:37 | 30.93817 | 69.85482 | 37235 ft | 562 kts | 144° |
| 2026-05-05 08:38 | 30.87720 | 69.91208 | 37222 ft | 561 kts | 144° |
| 2026-05-05 08:38 | 30.81642 | 69.96906 | 37219 ft | 560 kts | 144° |
| 2026-05-05 08:39 | 30.75570 | 70.02588 | 37221 ft | 562 kts | 144° |
| 2026-05-05 08:39 | 30.69480 | 70.08278 | 37197 ft | 561 kts | 144° |
| 2026-05-05 08:40 | 30.63398 | 70.13952 | 37133 ft | 560 kts | 144° |
| 2026-05-05 08:40 | 30.57330 | 70.19602 | 37092 ft | 560 kts | 144° |
| 2026-05-05 08:41 | 30.51270 | 70.25236 | 37055 ft | 561 kts | 144° |
| 2026-05-05 08:41 | 30.45181 | 70.30888 | 37035 ft | 559 kts | 144° |
| 2026-05-05 08:42 | 30.39116 | 70.36507 | 37014 ft | 561 kts | 144° |
| 2026-05-05 08:42 | 30.33047 | 70.42123 | 36990 ft | 559 kts | 144° |
| 2026-05-05 08:43 | 30.26962 | 70.47742 | 36958 ft | 560 kts | 144° |
| 2026-05-05 08:43 | 30.20881 | 70.53357 | 36922 ft | 559 kts | 143° |
| 2026-05-05 08:44 | 30.14843 | 70.59074 | 36915 ft | 560 kts | 142° |
| 2026-05-05 08:44 | 30.08850 | 70.64750 | 36906 ft | 560 kts | 142° |
| 2026-05-05 08:45 | 30.02808 | 70.70459 | 36881 ft | 558 kts | 143° |
| 2026-05-05 08:45 | 29.96789 | 70.76133 | 36873 ft | 560 kts | 143° |
| 2026-05-05 08:46 | 29.90767 | 70.81800 | 36867 ft | 558 kts | 143° |
| 2026-05-05 08:46 | 29.84741 | 70.87460 | 36850 ft | 557 kts | 143° |
| 2026-05-05 08:47 | 29.78732 | 70.93096 | 36847 ft | 558 kts | 143° |
| 2026-05-05 08:47 | 29.72706 | 70.98738 | 36846 ft | 557 kts | 143° |
| 2026-05-05 08:48 | 29.66711 | 71.04359 | 36839 ft | 559 kts | 142° |
| 2026-05-05 08:48 | 29.60900 | 71.10298 | 36843 ft | 558 kts | 140° |
| 2026-05-05 08:49 | 29.55138 | 71.16222 | 36843 ft | 558 kts | 140° |
| 2026-05-05 08:49 | 29.49319 | 71.22176 | 36845 ft | 558 kts | 141° |
| 2026-05-05 08:50 | 29.43540 | 71.28069 | 36843 ft | 558 kts | 141° |
| 2026-05-05 08:50 | 29.37746 | 71.33963 | 36842 ft | 558 kts | 140° |
| 2026-05-05 08:51 | 29.31939 | 71.39856 | 36844 ft | 558 kts | 140° |
| 2026-05-05 08:51 | 29.26127 | 71.45770 | 36844 ft | 559 kts | 140° |
| 2026-05-05 08:52 | 29.20347 | 71.51685 | 36843 ft | 558 kts | 140° |
| 2026-05-05 08:52 | 29.14544 | 71.57613 | 36836 ft | 558 kts | 140° |
| 2026-05-05 08:53 | 29.08745 | 71.63526 | 36837 ft | 558 kts | 140° |
| 2026-05-05 08:53 | 29.02959 | 71.69415 | 36824 ft | 559 kts | 141° |
| 2026-05-05 08:54 | 28.97161 | 71.75307 | 36830 ft | 558 kts | 141° |
| 2026-05-05 08:54 | 28.91369 | 71.81184 | 36829 ft | 556 kts | 141° |
| 2026-05-05 08:55 | 28.85563 | 71.87064 | 36820 ft | 557 kts | 141° |
| 2026-05-05 08:55 | 28.79746 | 71.92946 | 36822 ft | 558 kts | 141° |
| 2026-05-05 08:56 | 28.73950 | 71.98798 | 36825 ft | 558 kts | 141° |
| 2026-05-05 08:56 | 28.68154 | 72.04641 | 36828 ft | 557 kts | 141° |
| 2026-05-05 08:57 | 28.62351 | 72.10483 | 36828 ft | 558 kts | 141° |
| 2026-05-05 08:57 | 28.56567 | 72.16295 | 36831 ft | 556 kts | 141° |
| 2026-05-05 08:58 | 28.51287 | 72.22720 | 36826 ft | 560 kts | 126° |
| 2026-05-05 08:58 | 28.47679 | 72.30529 | 36822 ft | 558 kts | 108° |
| 2026-05-05 08:59 | 28.45914 | 72.38999 | 36827 ft | 555 kts | 97° |
| 2026-05-05 08:59 | 28.44619 | 72.47623 | 36826 ft | 555 kts | 96° |
| 2026-05-05 09:00 | 28.43315 | 72.56274 | 36830 ft | 556 kts | 96° |
| 2026-05-05 09:00 | 28.42012 | 72.64868 | 36837 ft | 554 kts | 96° |
| 2026-05-05 09:01 | 28.40696 | 72.73498 | 36824 ft | 555 kts | 97° |
| 2026-05-05 09:01 | 28.39382 | 72.82077 | 36827 ft | 554 kts | 97° |
| 2026-05-05 09:02 | 28.38057 | 72.90681 | 36832 ft | 554 kts | 97° |
| 2026-05-05 09:02 | 28.36732 | 72.99248 | 36837 ft | 554 kts | 97° |
| 2026-05-05 09:03 | 28.35400 | 73.07822 | 36843 ft | 554 kts | 97° |
| 2026-05-05 09:03 | 28.34061 | 73.16406 | 36847 ft | 554 kts | 97° |
| 2026-05-05 09:04 | 28.32724 | 73.24937 | 36853 ft | 553 kts | 97° |
| 2026-05-05 09:04 | 28.31376 | 73.33504 | 36854 ft | 554 kts | 97° |
| 2026-05-05 09:05 | 28.30022 | 73.42073 | 36858 ft | 552 kts | 97° |
| 2026-05-05 09:05 | 28.28657 | 73.50671 | 36858 ft | 553 kts | 97° |
| 2026-05-05 09:06 | 28.27296 | 73.59214 | 36863 ft | 552 kts | 97° |
| 2026-05-05 09:06 | 28.25933 | 73.67728 | 36848 ft | 552 kts | 98° |
| 2026-05-05 09:07 | 28.24560 | 73.76275 | 36853 ft | 552 kts | 98° |
| 2026-05-05 09:07 | 28.23181 | 73.84820 | 36856 ft | 551 kts | 98° |
| 2026-05-05 09:08 | 28.21799 | 73.93347 | 36863 ft | 551 kts | 98° |
| 2026-05-05 09:08 | 28.20420 | 74.01831 | 36871 ft | 551 kts | 98° |
| 2026-05-05 09:09 | 28.19181 | 74.10350 | 36862 ft | 548 kts | 91° |
| 2026-05-05 09:09 | 28.19409 | 74.18902 | 36861 ft | 542 kts | 81° |
| 2026-05-05 09:10 | 28.20026 | 74.27410 | 36866 ft | 543 kts | 81° |
| 2026-05-05 09:10 | 28.20631 | 74.35879 | 36876 ft | 543 kts | 81° |
| 2026-05-05 09:11 | 28.21227 | 74.44387 | 36882 ft | 544 kts | 81° |
| 2026-05-05 09:11 | 28.21818 | 74.52947 | 36885 ft | 543 kts | 81° |
| 2026-05-05 09:12 | 28.22399 | 74.61440 | 36886 ft | 543 kts | 81° |
| 2026-05-05 09:12 | 28.22976 | 74.69984 | 36872 ft | 544 kts | 82° |
| 2026-05-05 09:13 | 28.23545 | 74.78486 | 36873 ft | 544 kts | 82° |
| 2026-05-05 09:13 | 28.24109 | 74.87003 | 36875 ft | 543 kts | 82° |
| 2026-05-05 09:14 | 28.24668 | 74.95543 | 36877 ft | 544 kts | 82° |
| 2026-05-05 09:14 | 28.25223 | 75.04080 | 36880 ft | 543 kts | 82° |
| 2026-05-05 09:15 | 28.25771 | 75.12599 | 36878 ft | 546 kts | 82° |
| 2026-05-05 09:15 | 28.26315 | 75.21152 | 36877 ft | 544 kts | 82° |
| 2026-05-05 09:16 | 28.26850 | 75.29638 | 36879 ft | 544 kts | 82° |
| 2026-05-05 09:16 | 28.27384 | 75.38205 | 36880 ft | 544 kts | 82° |
| 2026-05-05 09:17 | 28.27911 | 75.46731 | 36882 ft | 543 kts | 82° |
| 2026-05-05 09:17 | 28.28435 | 75.55283 | 36886 ft | 546 kts | 82° |
| 2026-05-05 09:18 | 28.28950 | 75.63800 | 36885 ft | 545 kts | 82° |
| 2026-05-05 09:18 | 28.29465 | 75.72403 | 36871 ft | 545 kts | 83° |
| 2026-05-05 09:19 | 28.29973 | 75.80975 | 36866 ft | 545 kts | 83° |
| 2026-05-05 09:19 | 28.30474 | 75.89526 | 36860 ft | 545 kts | 83° |
| 2026-05-05 09:20 | 28.30971 | 75.98088 | 36861 ft | 546 kts | 83° |
| 2026-05-05 09:20 | 28.31460 | 76.06609 | 36858 ft | 546 kts | 83° |
| 2026-05-05 09:21 | 28.31947 | 76.15202 | 36860 ft | 545 kts | 83° |
| 2026-05-05 09:21 | 28.32429 | 76.23789 | 36856 ft | 545 kts | 83° |
| 2026-05-05 09:22 | 28.32902 | 76.32313 | 36854 ft | 546 kts | 83° |
| 2026-05-05 09:22 | 28.33373 | 76.40893 | 36859 ft | 546 kts | 83° |
| 2026-05-05 09:23 | 28.33839 | 76.49486 | 36864 ft | 544 kts | 83° |
| 2026-05-05 09:23 | 28.34295 | 76.58006 | 36868 ft | 543 kts | 83° |
| 2026-05-05 09:24 | 28.34063 | 76.66573 | 36869 ft | 548 kts | 98° |
| 2026-05-05 09:24 | 28.31931 | 76.74819 | 36864 ft | 549 kts | 110° |
| 2026-05-05 09:25 | 28.29242 | 76.82909 | 36868 ft | 548 kts | 111° |
| 2026-05-05 09:25 | 28.26537 | 76.90968 | 36864 ft | 549 kts | 111° |
| 2026-05-05 09:26 | 28.23821 | 76.99022 | 36873 ft | 548 kts | 111° |
| 2026-05-05 09:26 | 28.21090 | 77.07092 | 36872 ft | 548 kts | 111° |
| 2026-05-05 09:27 | 28.18369 | 77.15105 | 36859 ft | 548 kts | 111° |
| 2026-05-05 09:27 | 28.15629 | 77.23155 | 36852 ft | 547 kts | 111° |
| 2026-05-05 09:28 | 28.12895 | 77.31169 | 36857 ft | 547 kts | 111° |
| 2026-05-05 09:28 | 28.10160 | 77.39166 | 36858 ft | 547 kts | 111° |
| 2026-05-05 09:29 | 28.07411 | 77.47185 | 36849 ft | 546 kts | 111° |
| 2026-05-05 09:29 | 28.04668 | 77.55170 | 36852 ft | 546 kts | 111° |
| 2026-05-05 09:30 | 28.01917 | 77.63158 | 36853 ft | 545 kts | 111° |
| 2026-05-05 09:30 | 27.99162 | 77.71140 | 36834 ft | 543 kts | 112° |
| 2026-05-05 09:31 | 27.96420 | 77.79070 | 36826 ft | 544 kts | 112° |
| 2026-05-05 09:31 | 27.93658 | 77.87036 | 36823 ft | 545 kts | 112° |
| 2026-05-05 09:32 | 27.90890 | 77.95005 | 36821 ft | 545 kts | 112° |
| 2026-05-05 09:32 | 27.88104 | 78.03010 | 36828 ft | 545 kts | 112° |
| 2026-05-05 09:33 | 27.85350 | 78.10905 | 36831 ft | 543 kts | 112° |
| 2026-05-05 09:33 | 27.82574 | 78.18840 | 36836 ft | 543 kts | 112° |
| 2026-05-05 09:34 | 27.79652 | 78.26672 | 36834 ft | 543 kts | 114° |
| 2026-05-05 09:34 | 27.76694 | 78.34518 | 36831 ft | 543 kts | 114° |
| 2026-05-05 09:35 | 27.73740 | 78.42354 | 36837 ft | 544 kts | 114° |
| 2026-05-05 09:35 | 27.69315 | 78.54078 | 36844 ft | 543 kts | 114° |
| 2026-05-05 09:36 | 27.66357 | 78.61902 | 36845 ft | 543 kts | 114° |
| 2026-05-05 09:36 | 27.63385 | 78.69750 | 36844 ft | 543 kts | 115° |
| 2026-05-05 09:37 | 27.60414 | 78.77579 | 36844 ft | 542 kts | 114° |
| 2026-05-05 09:37 | 27.57467 | 78.85329 | 36843 ft | 543 kts | 115° |
| 2026-05-05 09:38 | 27.54475 | 78.93184 | 36840 ft | 542 kts | 115° |
| 2026-05-05 09:38 | 27.51505 | 79.00964 | 36846 ft | 543 kts | 115° |
| 2026-05-05 09:39 | 27.48531 | 79.08741 | 36848 ft | 542 kts | 115° |
| 2026-05-05 09:39 | 27.45559 | 79.16497 | 36842 ft | 541 kts | 115° |
| 2026-05-05 09:40 | 27.42579 | 79.24256 | 36834 ft | 542 kts | 115° |
| 2026-05-05 09:40 | 27.39587 | 79.32032 | 36836 ft | 541 kts | 115° |
| 2026-05-05 09:41 | 27.36605 | 79.39768 | 36837 ft | 541 kts | 115° |
| 2026-05-05 09:41 | 27.33602 | 79.47543 | 36834 ft | 541 kts | 115° |
| 2026-05-05 09:42 | 27.30530 | 79.55286 | 36836 ft | 540 kts | 116° |
| 2026-05-05 09:42 | 27.27444 | 79.62962 | 36838 ft | 540 kts | 116° |
| 2026-05-05 09:43 | 27.24343 | 79.70670 | 36817 ft | 539 kts | 116° |
| 2026-05-05 09:43 | 27.21245 | 79.78359 | 36819 ft | 539 kts | 117° |
| 2026-05-05 09:44 | 27.18148 | 79.86032 | 36824 ft | 540 kts | 116° |
| 2026-05-05 09:44 | 27.15052 | 79.93691 | 36833 ft | 540 kts | 116° |
| 2026-05-05 09:45 | 27.11942 | 80.01372 | 36832 ft | 539 kts | 116° |
| 2026-05-05 09:45 | 27.08850 | 80.08993 | 36838 ft | 539 kts | 117° |
| 2026-05-05 09:46 | 27.05761 | 80.16593 | 36834 ft | 539 kts | 117° |
| 2026-05-05 09:46 | 27.02669 | 80.24188 | 36838 ft | 537 kts | 117° |
| 2026-05-05 09:47 | 26.99551 | 80.31832 | 36843 ft | 538 kts | 117° |
| 2026-05-05 09:47 | 26.96417 | 80.39500 | 36846 ft | 538 kts | 117° |
| 2026-05-05 09:48 | 26.93308 | 80.47092 | 36846 ft | 537 kts | 117° |
| 2026-05-05 09:48 | 26.90194 | 80.54683 | 36849 ft | 539 kts | 117° |
| 2026-05-05 09:49 | 26.87063 | 80.62304 | 36858 ft | 539 kts | 117° |
| 2026-05-05 09:49 | 26.83917 | 80.69944 | 36841 ft | 538 kts | 117° |
| 2026-05-05 09:50 | 26.80795 | 80.77511 | 36853 ft | 537 kts | 117° |
| 2026-05-05 09:50 | 26.77673 | 80.85066 | 36852 ft | 538 kts | 117° |
| 2026-05-05 09:51 | 26.73967 | 80.92289 | 36854 ft | 531 kts | 129° |
| 2026-05-05 09:51 | 26.69666 | 80.98948 | 36847 ft | 530 kts | 130° |
| 2026-05-05 09:52 | 26.65321 | 81.05627 | 36835 ft | 531 kts | 130° |
| 2026-05-05 09:52 | 26.60964 | 81.12312 | 36826 ft | 531 kts | 130° |
| 2026-05-05 09:53 | 26.56636 | 81.18939 | 36826 ft | 531 kts | 130° |
| 2026-05-05 09:53 | 26.52274 | 81.25607 | 36820 ft | 531 kts | 130° |
| 2026-05-05 09:54 | 26.47942 | 81.32218 | 36820 ft | 529 kts | 130° |
| 2026-05-05 09:54 | 26.43598 | 81.38839 | 36818 ft | 529 kts | 130° |
| 2026-05-05 09:55 | 26.39272 | 81.45421 | 36818 ft | 529 kts | 130° |
| 2026-05-05 09:55 | 26.34909 | 81.52050 | 36819 ft | 527 kts | 130° |
| 2026-05-05 09:56 | 26.30562 | 81.58645 | 36819 ft | 527 kts | 130° |
| 2026-05-05 09:56 | 26.26216 | 81.65231 | 36819 ft | 527 kts | 131° |
| 2026-05-05 09:57 | 26.21869 | 81.71806 | 36804 ft | 526 kts | 131° |
| 2026-05-05 09:57 | 26.17526 | 81.78366 | 36805 ft | 526 kts | 131° |
| 2026-05-05 09:58 | 26.13220 | 81.84862 | 36801 ft | 524 kts | 131° |
| 2026-05-05 09:58 | 26.08878 | 81.91403 | 36805 ft | 525 kts | 131° |
| 2026-05-05 09:59 | 26.04553 | 81.97909 | 36799 ft | 524 kts | 131° |
| 2026-05-05 09:59 | 26.00207 | 82.04436 | 36801 ft | 523 kts | 131° |
| 2026-05-05 10:00 | 25.95905 | 82.10889 | 36795 ft | 524 kts | 131° |
| 2026-05-05 10:00 | 25.91548 | 82.17415 | 36791 ft | 525 kts | 131° |
| 2026-05-05 10:01 | 25.87203 | 82.23914 | 36794 ft | 525 kts | 131° |
| 2026-05-05 10:01 | 25.82863 | 82.30397 | 36781 ft | 524 kts | 131° |
| 2026-05-05 10:02 | 25.78483 | 82.36930 | 36778 ft | 524 kts | 131° |
| 2026-05-05 10:02 | 25.74106 | 82.43449 | 36775 ft | 523 kts | 131° |
| 2026-05-05 10:03 | 25.69779 | 82.49886 | 36778 ft | 522 kts | 131° |
| 2026-05-05 10:03 | 25.65429 | 82.56348 | 36784 ft | 523 kts | 131° |
| 2026-05-05 10:04 | 25.61049 | 82.62844 | 36784 ft | 524 kts | 131° |
| 2026-05-05 10:04 | 25.56682 | 82.69312 | 36776 ft | 525 kts | 132° |
| 2026-05-05 10:05 | 25.52303 | 82.75790 | 36782 ft | 523 kts | 132° |
| 2026-05-05 10:05 | 25.47940 | 82.82235 | 36788 ft | 524 kts | 132° |
| 2026-05-05 10:06 | 25.44283 | 82.89322 | 36784 ft | 536 kts | 116° |
| 2026-05-05 10:06 | 25.41672 | 82.97076 | 36782 ft | 537 kts | 114° |
| 2026-05-05 10:07 | 25.39112 | 83.04793 | 36777 ft | 535 kts | 114° |
| 2026-05-05 10:07 | 25.36531 | 83.12533 | 36760 ft | 536 kts | 114° |
| 2026-05-05 10:08 | 25.33953 | 83.20234 | 36752 ft | 536 kts | 114° |
| 2026-05-05 10:08 | 25.31370 | 83.27930 | 36748 ft | 537 kts | 114° |
| 2026-05-05 10:09 | 25.28770 | 83.35654 | 36746 ft | 537 kts | 114° |
| 2026-05-05 10:09 | 25.26144 | 83.43439 | 36756 ft | 539 kts | 114° |
| 2026-05-05 10:10 | 25.23523 | 83.51192 | 36758 ft | 540 kts | 114° |
| 2026-05-05 10:10 | 25.20913 | 83.58898 | 36763 ft | 541 kts | 114° |
| 2026-05-05 10:11 | 25.18277 | 83.66665 | 36750 ft | 539 kts | 115° |
| 2026-05-05 10:11 | 25.15646 | 83.74400 | 36749 ft | 540 kts | 115° |
| 2026-05-05 10:12 | 25.13003 | 83.82156 | 36747 ft | 541 kts | 114° |
| 2026-05-05 10:12 | 25.10358 | 83.89902 | 36752 ft | 540 kts | 114° |
| 2026-05-05 10:13 | 25.07715 | 83.97627 | 36756 ft | 542 kts | 114° |
| 2026-05-05 10:13 | 25.05052 | 84.05396 | 36762 ft | 542 kts | 114° |
| 2026-05-05 10:14 | 25.02381 | 84.13175 | 36766 ft | 540 kts | 115° |
| 2026-05-05 10:14 | 24.99720 | 84.20904 | 36767 ft | 542 kts | 115° |
| 2026-05-05 10:15 | 24.97050 | 84.28649 | 36757 ft | 541 kts | 115° |
| 2026-05-05 10:15 | 24.94365 | 84.36423 | 36759 ft | 539 kts | 115° |
| 2026-05-05 10:16 | 24.91705 | 84.44109 | 36753 ft | 538 kts | 115° |
| 2026-05-05 10:16 | 24.89003 | 84.51899 | 36755 ft | 540 kts | 115° |
| 2026-05-05 10:17 | 24.86316 | 84.59633 | 36766 ft | 539 kts | 115° |
| 2026-05-05 10:17 | 24.83638 | 84.67326 | 36771 ft | 539 kts | 115° |
| 2026-05-05 10:18 | 24.80954 | 84.75019 | 36786 ft | 538 kts | 115° |
| 2026-05-05 10:18 | 24.78266 | 84.82713 | 36795 ft | 538 kts | 115° |
| 2026-05-05 10:19 | 24.75577 | 84.90391 | 36805 ft | 537 kts | 115° |
| 2026-05-05 10:19 | 24.72126 | 84.97578 | 36807 ft | 526 kts | 129° |
| 2026-05-05 10:20 | 24.68011 | 85.04327 | 36804 ft | 529 kts | 129° |
| 2026-05-05 10:20 | 24.63931 | 85.10973 | 36799 ft | 525 kts | 129° |
| 2026-05-05 10:21 | 24.59807 | 85.17667 | 36808 ft | 527 kts | 129° |
| 2026-05-05 10:21 | 24.55713 | 85.24300 | 36816 ft | 525 kts | 129° |
| 2026-05-05 10:22 | 24.51615 | 85.30926 | 36835 ft | 526 kts | 129° |
| 2026-05-05 10:22 | 24.47508 | 85.37556 | 36845 ft | 525 kts | 129° |
| 2026-05-05 10:23 | 24.43403 | 85.44175 | 36857 ft | 525 kts | 129° |
| 2026-05-05 10:23 | 24.39306 | 85.50770 | 36862 ft | 526 kts | 129° |
| 2026-05-05 10:24 | 24.35191 | 85.57385 | 36863 ft | 525 kts | 129° |
| 2026-05-05 10:24 | 24.31094 | 85.63963 | 36869 ft | 523 kts | 129° |
| 2026-05-05 10:25 | 24.26996 | 85.70532 | 36853 ft | 521 kts | 129° |
| 2026-05-05 10:25 | 24.22875 | 85.77131 | 36855 ft | 522 kts | 130° |
| 2026-05-05 10:26 | 24.18771 | 85.83692 | 36849 ft | 521 kts | 129° |
| 2026-05-05 10:26 | 24.14708 | 85.90180 | 36847 ft | 519 kts | 129° |
| 2026-05-05 10:27 | 24.10607 | 85.96719 | 36842 ft | 519 kts | 129° |
| 2026-05-05 10:27 | 24.06537 | 86.03202 | 36839 ft | 519 kts | 129° |
| 2026-05-05 10:28 | 24.02458 | 86.09688 | 36840 ft | 519 kts | 129° |
| 2026-05-05 10:28 | 23.98375 | 86.16174 | 36836 ft | 519 kts | 129° |
| 2026-05-05 10:29 | 23.94305 | 86.22633 | 36836 ft | 516 kts | 129° |
| 2026-05-05 10:29 | 23.90236 | 86.29077 | 36831 ft | 517 kts | 130° |
| 2026-05-05 10:30 | 23.86117 | 86.35594 | 36826 ft | 520 kts | 129° |
| 2026-05-05 10:30 | 23.81999 | 86.42101 | 36814 ft | 519 kts | 130° |
| 2026-05-05 10:31 | 23.78100 | 86.48736 | 36816 ft | 523 kts | 126° |
| 2026-05-05 10:31 | 23.74396 | 86.55503 | 36809 ft | 523 kts | 126° |
| 2026-05-05 10:32 | 23.70657 | 86.62292 | 36814 ft | 521 kts | 126° |
| 2026-05-05 10:32 | 23.66874 | 86.69127 | 36805 ft | 520 kts | 126° |
| 2026-05-05 10:33 | 23.63123 | 86.75879 | 36796 ft | 522 kts | 126° |
| 2026-05-05 10:33 | 23.59360 | 86.82638 | 36805 ft | 521 kts | 126° |
| 2026-05-05 10:34 | 23.55576 | 86.89420 | 36807 ft | 522 kts | 127° |
| 2026-05-05 10:34 | 23.51799 | 86.96177 | 36800 ft | 523 kts | 126° |
| 2026-05-05 10:35 | 23.48023 | 87.02923 | 36807 ft | 522 kts | 126° |
| 2026-05-05 10:35 | 23.44234 | 87.09699 | 36800 ft | 522 kts | 126° |
| 2026-05-05 10:36 | 23.40464 | 87.16436 | 36800 ft | 522 kts | 126° |
| 2026-05-05 10:36 | 23.36680 | 87.23186 | 36795 ft | 523 kts | 126° |
| 2026-05-05 10:37 | 23.32869 | 87.29975 | 36792 ft | 523 kts | 126° |
| 2026-05-05 10:37 | 23.29114 | 87.36658 | 36788 ft | 522 kts | 126° |
| 2026-05-05 10:38 | 23.25318 | 87.43402 | 36784 ft | 523 kts | 126° |
| 2026-05-05 10:38 | 23.21494 | 87.50189 | 36781 ft | 523 kts | 126° |
| 2026-05-05 10:39 | 23.17694 | 87.56923 | 36780 ft | 522 kts | 126° |
| 2026-05-05 10:39 | 23.13891 | 87.63654 | 36780 ft | 522 kts | 126° |
| 2026-05-05 10:40 | 23.10088 | 87.70377 | 36768 ft | 521 kts | 126° |
| 2026-05-05 10:40 | 23.06283 | 87.77092 | 36770 ft | 523 kts | 126° |
| 2026-05-05 10:41 | 23.02483 | 87.83791 | 36767 ft | 522 kts | 126° |
| 2026-05-05 10:41 | 22.98676 | 87.90493 | 36771 ft | 521 kts | 126° |
| 2026-05-05 10:42 | 22.92980 | 88.00505 | 36772 ft | 522 kts | 126° |
| 2026-05-05 10:43 | 22.89157 | 88.07214 | 36773 ft | 522 kts | 126° |
| 2026-05-05 10:43 | 22.85328 | 88.13924 | 36779 ft | 521 kts | 126° |
| 2026-05-05 10:44 | 22.81530 | 88.20571 | 36791 ft | 521 kts | 126° |
| 2026-05-05 10:44 | 22.77706 | 88.27258 | 36794 ft | 520 kts | 126° |
| 2026-05-05 10:45 | 22.73909 | 88.33886 | 36804 ft | 520 kts | 126° |
| 2026-05-05 10:45 | 22.69860 | 88.40369 | 36808 ft | 513 kts | 136° |
| 2026-05-05 10:46 | 22.64532 | 88.45379 | 36809 ft | 499 kts | 153° |
| 2026-05-05 10:46 | 22.58366 | 88.48611 | 36812 ft | 491 kts | 162° |
| 2026-05-05 10:47 | 22.52056 | 88.51459 | 36807 ft | 490 kts | 163° |
| 2026-05-05 10:47 | 22.45761 | 88.54251 | 36803 ft | 489 kts | 163° |
| 2026-05-05 10:48 | 22.39416 | 88.57036 | 36800 ft | 489 kts | 163° |
| 2026-05-05 10:48 | 22.33110 | 88.59788 | 36800 ft | 489 kts | 163° |
| 2026-05-05 10:49 | 22.26791 | 88.62535 | 36799 ft | 489 kts | 163° |
| 2026-05-05 10:49 | 22.20462 | 88.65281 | 36798 ft | 489 kts | 163° |
| 2026-05-05 10:50 | 22.14135 | 88.68019 | 36792 ft | 489 kts | 163° |
| 2026-05-05 10:50 | 22.07821 | 88.70749 | 36792 ft | 488 kts | 163° |
| 2026-05-05 10:51 | 22.01466 | 88.73493 | 36795 ft | 490 kts | 163° |
| 2026-05-05 10:51 | 21.95160 | 88.76213 | 36796 ft | 490 kts | 163° |
| 2026-05-05 10:52 | 21.88823 | 88.78944 | 36801 ft | 489 kts | 163° |
| 2026-05-05 10:52 | 21.82480 | 88.81673 | 36805 ft | 489 kts | 163° |
| 2026-05-05 10:53 | 21.76129 | 88.84405 | 36805 ft | 489 kts | 163° |
| 2026-05-05 10:53 | 21.69794 | 88.87126 | 36806 ft | 489 kts | 163° |
| 2026-05-05 10:54 | 21.63442 | 88.89852 | 36807 ft | 491 kts | 163° |
| 2026-05-05 10:54 | 21.57099 | 88.92572 | 36805 ft | 491 kts | 163° |
| 2026-05-05 10:55 | 21.50727 | 88.95302 | 36805 ft | 490 kts | 163° |
| 2026-05-05 10:55 | 21.44382 | 88.98017 | 36804 ft | 491 kts | 163° |
| 2026-05-05 10:56 | 21.38042 | 89.00727 | 36813 ft | 492 kts | 163° |
| 2026-05-05 10:56 | 21.31665 | 89.03451 | 36812 ft | 492 kts | 163° |
| 2026-05-05 10:57 | 21.25328 | 89.06156 | 36817 ft | 492 kts | 163° |
| 2026-05-05 10:57 | 21.18972 | 89.08866 | 36819 ft | 492 kts | 163° |
| 2026-05-05 10:58 | 21.12575 | 89.11591 | 36822 ft | 492 kts | 163° |
| 2026-05-05 10:58 | 21.06224 | 89.14294 | 36822 ft | 493 kts | 163° |
| 2026-05-05 10:59 | 20.99859 | 89.17000 | 36826 ft | 492 kts | 163° |
| 2026-05-05 10:59 | 20.93648 | 89.20195 | 36825 ft | 500 kts | 150° |
| 2026-05-05 11:00 | 20.88450 | 89.25222 | 36829 ft | 511 kts | 132° |
| 2026-05-05 11:00 | 20.84133 | 89.31303 | 36831 ft | 512 kts | 130° |
| 2026-05-05 11:01 | 20.79896 | 89.37373 | 36832 ft | 512 kts | 129° |
| 2026-05-05 11:01 | 20.75620 | 89.43484 | 36832 ft | 511 kts | 129° |
| 2026-05-05 11:02 | 20.71371 | 89.49545 | 36832 ft | 510 kts | 129° |
| 2026-05-05 11:02 | 20.67114 | 89.55609 | 36833 ft | 512 kts | 129° |
| 2026-05-05 11:03 | 20.62843 | 89.61686 | 36834 ft | 512 kts | 129° |
| 2026-05-05 11:03 | 20.58571 | 89.67759 | 36823 ft | 511 kts | 130° |
| 2026-05-05 11:04 | 20.54285 | 89.73840 | 36823 ft | 512 kts | 130° |
| 2026-05-05 11:04 | 20.50003 | 89.79913 | 36822 ft | 513 kts | 130° |
| 2026-05-05 11:05 | 20.45708 | 89.85998 | 36824 ft | 511 kts | 130° |
| 2026-05-05 11:05 | 20.41437 | 89.92040 | 36824 ft | 510 kts | 130° |
| 2026-05-05 11:06 | 20.37137 | 89.98119 | 36823 ft | 511 kts | 130° |
| 2026-05-05 11:06 | 20.32874 | 90.04137 | 36820 ft | 512 kts | 130° |
| 2026-05-05 11:07 | 20.28585 | 90.10188 | 36814 ft | 511 kts | 130° |
| 2026-05-05 11:07 | 20.24308 | 90.16213 | 36810 ft | 511 kts | 130° |
| 2026-05-05 11:08 | 20.20003 | 90.22274 | 36809 ft | 511 kts | 130° |
| 2026-05-05 11:08 | 20.15737 | 90.28273 | 36808 ft | 511 kts | 130° |
| 2026-05-05 11:09 | 20.11445 | 90.34301 | 36809 ft | 511 kts | 130° |
| 2026-05-05 11:09 | 20.07139 | 90.40344 | 36809 ft | 510 kts | 130° |
| 2026-05-05 11:10 | 20.02875 | 90.46320 | 36812 ft | 511 kts | 130° |
| 2026-05-05 11:10 | 19.98578 | 90.52339 | 36813 ft | 510 kts | 130° |
| 2026-05-05 11:11 | 19.94283 | 90.58347 | 36822 ft | 511 kts | 130° |
| 2026-05-05 11:11 | 19.89984 | 90.64356 | 36833 ft | 510 kts | 130° |
| 2026-05-05 11:12 | 19.85780 | 90.70225 | 36823 ft | 510 kts | 130° |
| 2026-05-05 11:12 | 19.81479 | 90.76224 | 36823 ft | 510 kts | 130° |
| 2026-05-05 11:13 | 19.77161 | 90.82241 | 36826 ft | 511 kts | 130° |
| 2026-05-05 11:13 | 19.72859 | 90.88229 | 36824 ft | 511 kts | 130° |
| 2026-05-05 11:14 | 19.68556 | 90.94213 | 36828 ft | 511 kts | 130° |
| 2026-05-05 11:14 | 19.64224 | 91.00230 | 36826 ft | 512 kts | 130° |
| 2026-05-05 11:15 | 19.59921 | 91.06203 | 36827 ft | 512 kts | 130° |
| 2026-05-05 11:15 | 19.55612 | 91.12176 | 36830 ft | 511 kts | 130° |
| 2026-05-05 11:16 | 19.51281 | 91.18175 | 36828 ft | 512 kts | 130° |
| 2026-05-05 11:16 | 19.46939 | 91.24183 | 36831 ft | 511 kts | 130° |
| 2026-05-05 11:17 | 19.42634 | 91.30133 | 36830 ft | 512 kts | 130° |
| 2026-05-05 11:17 | 19.38295 | 91.36126 | 36831 ft | 512 kts | 130° |
| 2026-05-05 11:18 | 19.33963 | 91.42101 | 36830 ft | 513 kts | 130° |
| 2026-05-05 11:18 | 19.29635 | 91.48067 | 36831 ft | 513 kts | 130° |
| 2026-05-05 11:19 | 19.25294 | 91.54044 | 36831 ft | 513 kts | 130° |
| 2026-05-05 11:19 | 19.20944 | 91.60027 | 36834 ft | 513 kts | 130° |
| 2026-05-05 11:20 | 19.16589 | 91.66011 | 36822 ft | 513 kts | 130° |
| 2026-05-05 11:20 | 19.12216 | 91.72016 | 36808 ft | 513 kts | 130° |
| 2026-05-05 11:21 | 19.07874 | 91.77971 | 36807 ft | 513 kts | 130° |
| 2026-05-05 11:21 | 19.03514 | 91.83945 | 36805 ft | 513 kts | 130° |
| 2026-05-05 11:22 | 18.99166 | 91.89897 | 36806 ft | 513 kts | 130° |
| 2026-05-05 11:22 | 18.94810 | 91.95854 | 36803 ft | 512 kts | 130° |
| 2026-05-05 11:23 | 18.90437 | 92.01811 | 36808 ft | 512 kts | 130° |
| 2026-05-05 11:23 | 18.86014 | 92.07737 | 36809 ft | 512 kts | 130° |
| 2026-05-05 11:24 | 18.81629 | 92.13603 | 36811 ft | 512 kts | 130° |
| 2026-05-05 11:24 | 18.77224 | 92.19495 | 36816 ft | 511 kts | 130° |
| 2026-05-05 11:25 | 18.72807 | 92.25400 | 36819 ft | 511 kts | 130° |
| 2026-05-05 11:25 | 18.68407 | 92.31275 | 36825 ft | 511 kts | 130° |
| 2026-05-05 11:26 | 18.64032 | 92.37114 | 36828 ft | 511 kts | 130° |
| 2026-05-05 11:26 | 18.59602 | 92.43020 | 36828 ft | 511 kts | 130° |
| 2026-05-05 11:27 | 18.55207 | 92.48874 | 36828 ft | 511 kts | 130° |
| 2026-05-05 11:27 | 18.50791 | 92.54750 | 36833 ft | 512 kts | 130° |
| 2026-05-05 11:28 | 18.46360 | 92.60642 | 36831 ft | 511 kts | 130° |
| 2026-05-05 11:28 | 18.41988 | 92.66450 | 36825 ft | 511 kts | 130° |
| 2026-05-05 11:29 | 18.37527 | 92.72370 | 36825 ft | 512 kts | 130° |
| 2026-05-05 11:29 | 18.33097 | 92.78243 | 36824 ft | 511 kts | 130° |
| 2026-05-05 11:30 | 18.28692 | 92.84078 | 36825 ft | 511 kts | 130° |
| 2026-05-05 11:30 | 18.24266 | 92.89937 | 36825 ft | 512 kts | 130° |
| 2026-05-05 11:31 | 18.19840 | 92.95789 | 36825 ft | 512 kts | 130° |
| 2026-05-05 11:31 | 18.15383 | 93.01678 | 36824 ft | 513 kts | 130° |
| 2026-05-05 11:32 | 18.10932 | 93.07552 | 36825 ft | 513 kts | 130° |
| 2026-05-05 11:32 | 18.06511 | 93.13383 | 36825 ft | 512 kts | 130° |
| 2026-05-05 11:33 | 18.02077 | 93.19224 | 36826 ft | 512 kts | 130° |
| 2026-05-05 11:33 | 17.97606 | 93.25109 | 36823 ft | 511 kts | 130° |
| 2026-05-05 11:34 | 17.93164 | 93.30950 | 36827 ft | 512 kts | 130° |
| 2026-05-05 11:34 | 17.88712 | 93.36801 | 36820 ft | 512 kts | 130° |
| 2026-05-05 11:35 | 17.84279 | 93.42621 | 36814 ft | 510 kts | 130° |
| 2026-05-05 11:35 | 17.79841 | 93.48441 | 36811 ft | 510 kts | 130° |
| 2026-05-05 11:36 | 17.75427 | 93.54226 | 36812 ft | 510 kts | 130° |
| 2026-05-05 11:36 | 17.70976 | 93.60053 | 36812 ft | 510 kts | 129° |
| 2026-05-05 11:37 | 17.66537 | 93.65860 | 36809 ft | 510 kts | 130° |
| 2026-05-05 11:37 | 17.62102 | 93.71657 | 36803 ft | 510 kts | 130° |
| 2026-05-05 11:38 | 17.57667 | 93.77448 | 36804 ft | 510 kts | 130° |
| 2026-05-05 11:38 | 17.53239 | 93.83226 | 36805 ft | 509 kts | 130° |
| 2026-05-05 11:39 | 17.48788 | 93.89027 | 36807 ft | 510 kts | 130° |
| 2026-05-05 11:39 | 17.44357 | 93.94799 | 36809 ft | 509 kts | 130° |
| 2026-05-05 11:40 | 17.39926 | 94.00565 | 36819 ft | 509 kts | 129° |
| 2026-05-05 11:40 | 17.35479 | 94.06347 | 36825 ft | 509 kts | 129° |
| 2026-05-05 11:41 | 17.31047 | 94.12105 | 36822 ft | 509 kts | 129° |
| 2026-05-05 11:41 | 17.26600 | 94.17877 | 36820 ft | 508 kts | 129° |
| 2026-05-05 11:42 | 17.22162 | 94.23633 | 36822 ft | 508 kts | 129° |
| 2026-05-05 11:42 | 17.17720 | 94.29389 | 36819 ft | 509 kts | 129° |
| 2026-05-05 11:43 | 17.13290 | 94.35125 | 36807 ft | 508 kts | 129° |
| 2026-05-05 11:43 | 17.08837 | 94.40884 | 36796 ft | 509 kts | 129° |
| 2026-05-05 11:44 | 17.04367 | 94.46662 | 36806 ft | 509 kts | 129° |
| 2026-05-05 11:44 | 16.99941 | 94.52379 | 36806 ft | 508 kts | 129° |
| 2026-05-05 11:45 | 16.95481 | 94.58133 | 36805 ft | 508 kts | 129° |
| 2026-05-05 11:45 | 16.91026 | 94.63876 | 36804 ft | 507 kts | 129° |
| 2026-05-05 11:46 | 16.86561 | 94.69629 | 36798 ft | 507 kts | 129° |
| 2026-05-05 11:46 | 16.82143 | 94.75326 | 36790 ft | 507 kts | 128° |
| 2026-05-05 11:47 | 16.78542 | 94.81683 | 36799 ft | 508 kts | 116° |
| 2026-05-05 11:47 | 16.75364 | 94.88250 | 36795 ft | 508 kts | 116° |
| 2026-05-05 11:48 | 16.70597 | 94.98080 | 36797 ft | 506 kts | 116° |
| 2026-05-05 11:48 | 16.67416 | 95.04623 | 36791 ft | 506 kts | 116° |
| 2026-05-05 11:49 | 16.64190 | 95.11247 | 36797 ft | 506 kts | 116° |
| 2026-05-05 11:49 | 16.61014 | 95.17760 | 36792 ft | 507 kts | 116° |
| 2026-05-05 11:50 | 16.57807 | 95.24331 | 36793 ft | 505 kts | 116° |
| 2026-05-05 11:50 | 16.54620 | 95.30851 | 36787 ft | 505 kts | 116° |
| 2026-05-05 11:51 | 16.51445 | 95.37341 | 36788 ft | 504 kts | 116° |
| 2026-05-05 11:51 | 16.48253 | 95.43861 | 36793 ft | 505 kts | 116° |
| 2026-05-05 11:52 | 16.45045 | 95.50405 | 36788 ft | 504 kts | 116° |
| 2026-05-05 11:52 | 16.41844 | 95.56930 | 36798 ft | 504 kts | 116° |
| 2026-05-05 11:53 | 16.38663 | 95.63408 | 36789 ft | 504 kts | 116° |
| 2026-05-05 11:53 | 16.35451 | 95.69941 | 36794 ft | 504 kts | 116° |
| 2026-05-05 11:54 | 16.32248 | 95.76451 | 36798 ft | 504 kts | 116° |
| 2026-05-05 11:54 | 16.29043 | 95.82959 | 36801 ft | 502 kts | 116° |
| 2026-05-05 11:55 | 16.25865 | 95.89407 | 36805 ft | 502 kts | 116° |
| 2026-05-05 11:55 | 16.22671 | 95.95879 | 36803 ft | 502 kts | 116° |
| 2026-05-05 11:56 | 16.19465 | 96.02370 | 36803 ft | 503 kts | 116° |
| 2026-05-05 11:56 | 16.16285 | 96.08803 | 36800 ft | 502 kts | 116° |
| 2026-05-05 11:57 | 16.13100 | 96.15241 | 36802 ft | 502 kts | 116° |
| 2026-05-05 11:57 | 16.09875 | 96.21751 | 36802 ft | 500 kts | 116° |
| 2026-05-05 11:58 | 16.06695 | 96.28166 | 36801 ft | 500 kts | 116° |
| 2026-05-05 11:58 | 16.03512 | 96.34582 | 36798 ft | 500 kts | 116° |
| 2026-05-05 11:59 | 16.00304 | 96.41041 | 36799 ft | 499 kts | 116° |
| 2026-05-05 11:59 | 15.97139 | 96.47407 | 36798 ft | 500 kts | 116° |
| 2026-05-05 12:00 | 15.93950 | 96.53818 | 36801 ft | 500 kts | 116° |
| 2026-05-05 12:00 | 15.90766 | 96.60211 | 36796 ft | 499 kts | 116° |
| 2026-05-05 12:01 | 15.87565 | 96.66631 | 36784 ft | 499 kts | 117° |
| 2026-05-05 12:01 | 15.84365 | 96.73048 | 36785 ft | 498 kts | 117° |
| 2026-05-05 12:02 | 15.81195 | 96.79395 | 36788 ft | 498 kts | 117° |
| 2026-05-05 12:02 | 15.78002 | 96.85783 | 36797 ft | 498 kts | 117° |
| 2026-05-05 12:03 | 15.74822 | 96.92139 | 36807 ft | 498 kts | 117° |
| 2026-05-05 12:03 | 15.71619 | 96.98536 | 36811 ft | 498 kts | 117° |
| 2026-05-05 12:04 | 15.68434 | 97.04891 | 36814 ft | 497 kts | 117° |
| 2026-05-05 12:04 | 15.65229 | 97.11282 | 36816 ft | 497 kts | 117° |
| 2026-05-05 12:05 | 15.62013 | 97.17687 | 36817 ft | 497 kts | 117° |
| 2026-05-05 12:05 | 15.58826 | 97.24030 | 36821 ft | 497 kts | 116° |
| 2026-05-05 12:06 | 15.55626 | 97.30393 | 36822 ft | 496 kts | 116° |
| 2026-05-05 12:06 | 15.52415 | 97.36772 | 36815 ft | 497 kts | 116° |
| 2026-05-05 12:07 | 15.49198 | 97.43156 | 36806 ft | 497 kts | 116° |
| 2026-05-05 12:07 | 15.46005 | 97.49488 | 36808 ft | 496 kts | 116° |
| 2026-05-05 12:08 | 15.42822 | 97.55794 | 36811 ft | 494 kts | 116° |
| 2026-05-05 12:08 | 15.39637 | 97.62099 | 36815 ft | 495 kts | 116° |
| 2026-05-05 12:09 | 15.36429 | 97.68446 | 36816 ft | 495 kts | 117° |
| 2026-05-05 12:09 | 15.33242 | 97.74743 | 36816 ft | 495 kts | 117° |
| 2026-05-05 12:10 | 15.30038 | 97.81070 | 36826 ft | 496 kts | 117° |
| 2026-05-05 12:10 | 15.26836 | 97.87387 | 36833 ft | 495 kts | 117° |
| 2026-05-05 12:11 | 15.23646 | 97.93674 | 36844 ft | 493 kts | 117° |
| 2026-05-05 12:11 | 15.20432 | 98.00004 | 36862 ft | 493 kts | 117° |
| 2026-05-05 12:12 | 15.17239 | 98.06287 | 36883 ft | 493 kts | 117° |
| 2026-05-05 12:12 | 15.14028 | 98.12601 | 36892 ft | 494 kts | 117° |
| 2026-05-05 12:13 | 15.10801 | 98.18939 | 36904 ft | 495 kts | 117° |
| 2026-05-05 12:13 | 15.07603 | 98.25298 | 36922 ft | 494 kts | 116° |
| 2026-05-05 12:14 | 15.04460 | 98.31631 | 36920 ft | 495 kts | 116° |
| 2026-05-05 12:14 | 15.01314 | 98.37960 | 36907 ft | 494 kts | 116° |
| 2026-05-05 12:15 | 14.98179 | 98.44260 | 36892 ft | 493 kts | 116° |
| 2026-05-05 12:15 | 14.95018 | 98.50603 | 36882 ft | 494 kts | 116° |
| 2026-05-05 12:16 | 14.91881 | 98.56891 | 36904 ft | 492 kts | 116° |
| 2026-05-05 12:16 | 14.88718 | 98.63228 | 36921 ft | 494 kts | 116° |
| 2026-05-05 12:17 | 14.85579 | 98.69508 | 36938 ft | 494 kts | 116° |
| 2026-05-05 12:17 | 14.82405 | 98.75855 | 36951 ft | 493 kts | 116° |
| 2026-05-05 12:18 | 14.79257 | 98.82143 | 36933 ft | 493 kts | 116° |
| 2026-05-05 12:18 | 14.76113 | 98.88420 | 36924 ft | 494 kts | 116° |
| 2026-05-05 12:19 | 14.72948 | 98.94731 | 36912 ft | 493 kts | 116° |
| 2026-05-05 12:19 | 14.69795 | 99.01014 | 36899 ft | 493 kts | 116° |
| 2026-05-05 12:20 | 14.66647 | 99.07282 | 36915 ft | 493 kts | 116° |
| 2026-05-05 12:20 | 14.65073 | 99.10414 | 36634 ft | 487 kts | 116° |
| 2026-05-05 12:20 | 14.63514 | 99.13513 | 35662 ft | 491 kts | 116° |
| 2026-05-05 12:21 | 14.61921 | 99.16682 | 34688 ft | 494 kts | 116° |
| 2026-05-05 12:21 | 14.60340 | 99.19825 | 33849 ft | 495 kts | 117° |
| 2026-05-05 12:21 | 14.58766 | 99.22952 | 33028 ft | 495 kts | 117° |
| 2026-05-05 12:21 | 14.57189 | 99.26083 | 32177 ft | 496 kts | 117° |
| 2026-05-05 12:22 | 14.55590 | 99.29257 | 31303 ft | 498 kts | 116° |
| 2026-05-05 12:22 | 14.53997 | 99.32418 | 30487 ft | 498 kts | 116° |
| 2026-05-05 12:22 | 14.52411 | 99.35561 | 29950 ft | 492 kts | 116° |
| 2026-05-05 12:22 | 14.50838 | 99.38680 | 29382 ft | 487 kts | 116° |
| 2026-05-05 12:23 | 14.49271 | 99.41785 | 28767 ft | 483 kts | 116° |
| 2026-05-05 12:23 | 14.47729 | 99.44839 | 28156 ft | 479 kts | 116° |
| 2026-05-05 12:23 | 14.46205 | 99.47858 | 27552 ft | 475 kts | 116° |
| 2026-05-05 12:23 | 14.44858 | 99.50929 | 26945 ft | 470 kts | 108° |
| 2026-05-05 12:24 | 14.44003 | 99.54143 | 26346 ft | 465 kts | 99° |
| 2026-05-05 12:24 | 14.43624 | 99.57444 | 25761 ft | 461 kts | 93° |
| 2026-05-05 12:24 | 14.43396 | 99.60699 | 25200 ft | 457 kts | 92° |
| 2026-05-05 12:24 | 14.43180 | 99.63959 | 24636 ft | 453 kts | 92° |
| 2026-05-05 12:25 | 14.42971 | 99.67169 | 24072 ft | 450 kts | 93° |
| 2026-05-05 12:25 | 14.42761 | 99.70412 | 23496 ft | 448 kts | 93° |
| 2026-05-05 12:25 | 14.42558 | 99.73558 | 22944 ft | 445 kts | 93° |
| 2026-05-05 12:25 | 14.42352 | 99.76759 | 22365 ft | 442 kts | 93° |
| 2026-05-05 12:26 | 14.42151 | 99.79894 | 21811 ft | 440 kts | 93° |
| 2026-05-05 12:26 | 14.41950 | 99.83021 | 21256 ft | 437 kts | 93° |
| 2026-05-05 12:26 | 14.41753 | 99.86100 | 20686 ft | 435 kts | 93° |
| 2026-05-05 12:26 | 14.41553 | 99.89214 | 20105 ft | 433 kts | 93° |
| 2026-05-05 12:27 | 14.41356 | 99.92274 | 19535 ft | 431 kts | 93° |
| 2026-05-05 12:27 | 14.41158 | 99.95348 | 18950 ft | 429 kts | 93° |
| 2026-05-05 12:27 | 14.40961 | 99.98412 | 18367 ft | 426 kts | 93° |
| 2026-05-05 12:27 | 14.40766 | 100.01431 | 17939 ft | 419 kts | 93° |
| 2026-05-05 12:28 | 14.40574 | 100.04372 | 17826 ft | 404 kts | 94° |
| 2026-05-05 12:28 | 14.40136 | 100.07184 | 17690 ft | 391 kts | 102° |
| 2026-05-05 12:28 | 14.39491 | 100.09860 | 17416 ft | 383 kts | 103° |
| 2026-05-05 12:28 | 14.38840 | 100.12484 | 17120 ft | 376 kts | 103° |
| 2026-05-05 12:29 | 14.38191 | 100.15092 | 16831 ft | 369 kts | 103° |
| 2026-05-05 12:29 | 14.37559 | 100.17630 | 16556 ft | 362 kts | 103° |
| 2026-05-05 12:29 | 14.36937 | 100.20125 | 16291 ft | 361 kts | 103° |
| 2026-05-05 12:29 | 14.36308 | 100.22644 | 16024 ft | 361 kts | 103° |
| 2026-05-05 12:30 | 14.35690 | 100.25114 | 15757 ft | 359 kts | 103° |
| 2026-05-05 12:30 | 14.35063 | 100.27623 | 15488 ft | 357 kts | 103° |
| 2026-05-05 12:30 | 14.34446 | 100.30085 | 15222 ft | 354 kts | 103° |
| 2026-05-05 12:30 | 14.33833 | 100.32534 | 14959 ft | 353 kts | 103° |
| 2026-05-05 12:31 | 14.33223 | 100.34965 | 14694 ft | 351 kts | 103° |
| 2026-05-05 12:31 | 14.32617 | 100.37382 | 14392 ft | 349 kts | 104° |
| 2026-05-05 12:31 | 14.32009 | 100.39806 | 14080 ft | 346 kts | 104° |
| 2026-05-05 12:31 | 14.31416 | 100.42169 | 13779 ft | 343 kts | 104° |
| 2026-05-05 12:32 | 14.30816 | 100.44558 | 13485 ft | 341 kts | 104° |
| 2026-05-05 12:32 | 14.30220 | 100.46931 | 13186 ft | 340 kts | 104° |
| 2026-05-05 12:32 | 14.29633 | 100.49265 | 12893 ft | 338 kts | 104° |
| 2026-05-05 12:32 | 14.28795 | 100.51467 | 12729 ft | 327 kts | 119° |
| 2026-05-05 12:33 | 14.27422 | 100.53281 | 12641 ft | 313 kts | 135° |
| 2026-05-05 12:33 | 14.25851 | 100.54748 | 12624 ft | 298 kts | 137° |
| 2026-05-05 12:33 | 14.24314 | 100.56140 | 12469 ft | 288 kts | 137° |
| 2026-05-05 12:33 | 14.22810 | 100.57499 | 12099 ft | 288 kts | 137° |
| 2026-05-05 12:34 | 14.21306 | 100.58858 | 11721 ft | 287 kts | 137° |
| 2026-05-05 12:34 | 14.19814 | 100.60205 | 11341 ft | 286 kts | 137° |
| 2026-05-05 12:34 | 14.18345 | 100.61588 | 10959 ft | 285 kts | 130° |
| 2026-05-05 12:34 | 14.17202 | 100.63225 | 10580 ft | 282 kts | 115° |
| 2026-05-05 12:35 | 14.16409 | 100.65062 | 10214 ft | 281 kts | 111° |
| 2026-05-05 12:35 | 14.15721 | 100.66939 | 9845 ft | 279 kts | 102° |
| 2026-05-05 12:35 | 14.15424 | 100.68922 | 9476 ft | 277 kts | 96° |
| 2026-05-05 12:35 | 14.15269 | 100.70877 | 9137 ft | 276 kts | 92° |
| 2026-05-05 12:36 | 14.15190 | 100.72849 | 8769 ft | 274 kts | 91° |
| 2026-05-05 12:36 | 14.15118 | 100.74801 | 8389 ft | 273 kts | 91° |
| 2026-05-05 12:36 | 14.15047 | 100.76730 | 7977 ft | 273 kts | 91° |
| 2026-05-05 12:36 | 14.14976 | 100.78696 | 7552 ft | 273 kts | 91° |
| 2026-05-05 12:37 | 14.14907 | 100.80628 | 7132 ft | 273 kts | 91° |
| 2026-05-05 12:37 | 14.14834 | 100.82591 | 6703 ft | 272 kts | 92° |
| 2026-05-05 12:37 | 14.14477 | 100.84480 | 6270 ft | 273 kts | 114° |
| 2026-05-05 12:37 | 14.13358 | 100.86035 | 5845 ft | 274 kts | 137° |
| 2026-05-05 12:38 | 14.11708 | 100.86980 | 5468 ft | 273 kts | 165° |
| 2026-05-05 12:38 | 14.09832 | 100.87021 | 5210 ft | 267 kts | 191° |
| 2026-05-05 12:38 | 14.08075 | 100.86549 | 5025 ft | 258 kts | 195° |
| 2026-05-05 12:38 | 14.06371 | 100.86042 | 4921 ft | 250 kts | 195° |
| 2026-05-05 12:39 | 14.04708 | 100.85542 | 4802 ft | 243 kts | 195° |
| 2026-05-05 12:39 | 14.03091 | 100.85062 | 4683 ft | 237 kts | 194° |
| 2026-05-05 12:39 | 14.01521 | 100.84607 | 4566 ft | 231 kts | 194° |
| 2026-05-05 12:39 | 13.99991 | 100.84174 | 4455 ft | 225 kts | 193° |
| 2026-05-05 12:40 | 13.98493 | 100.83762 | 4332 ft | 220 kts | 193° |
| 2026-05-05 12:40 | 13.97015 | 100.83363 | 4213 ft | 214 kts | 192° |
| 2026-05-05 12:40 | 13.95599 | 100.82989 | 4097 ft | 209 kts | 192° |
| 2026-05-05 12:40 | 13.94189 | 100.82622 | 3995 ft | 205 kts | 192° |
| 2026-05-05 12:41 | 13.92808 | 100.82267 | 3980 ft | 202 kts | 191° |
| 2026-05-05 12:41 | 13.91477 | 100.81924 | 3977 ft | 194 kts | 192° |
| 2026-05-05 12:41 | 13.90170 | 100.81587 | 3962 ft | 191 kts | 192° |
| 2026-05-05 12:41 | 13.88830 | 100.81241 | 3718 ft | 196 kts | 192° |
| 2026-05-05 12:42 | 13.87504 | 100.80898 | 3480 ft | 193 kts | 192° |
| 2026-05-05 12:42 | 13.86209 | 100.80559 | 3246 ft | 190 kts | 192° |
| 2026-05-05 12:42 | 13.84931 | 100.80224 | 3015 ft | 187 kts | 192° |
| 2026-05-05 12:42 | 13.83684 | 100.79896 | 2789 ft | 185 kts | 192° |
| 2026-05-05 12:43 | 13.82430 | 100.79567 | 2557 ft | 182 kts | 191° |
| 2026-05-05 12:43 | 13.81209 | 100.79247 | 2330 ft | 179 kts | 191° |
| 2026-05-05 12:43 | 13.80019 | 100.78936 | 2112 ft | 172 kts | 191° |
| 2026-05-05 12:43 | 13.78912 | 100.78645 | 1901 ft | 155 kts | 191° |
| 2026-05-05 12:44 | 13.77904 | 100.78382 | 1717 ft | 143 kts | 190° |
| 2026-05-05 12:44 | 13.76966 | 100.78138 | 1537 ft | 137 kts | 190° |
| 2026-05-05 12:44 | 13.76016 | 100.77890 | 1360 ft | 141 kts | 191° |
| 2026-05-05 12:44 | 13.75060 | 100.77639 | 1172 ft | 141 kts | 191° |
| 2026-05-05 12:45 | 13.74097 | 100.77398 | 961 ft | 142 kts | 191° |
| 2026-05-05 12:45 | 13.73142 | 100.77136 | 777 ft | 142 kts | 193° |
| 2026-05-05 12:45 | 13.72178 | 100.76877 | 584 ft | 142 kts | 192° |
| 2026-05-05 12:45 | 13.71199 | 100.76634 | 439 ft | 144 kts | 194° |
| 2026-05-05 12:46 | 13.70214 | 100.76370 | 275 ft | 144 kts | 193° |
| 2026-05-05 12:46 | 13.69264 | 100.76126 | 89 ft | 139 kts | 194° |
| 2026-05-05 12:46 | 13.68347 | 100.75885 | 15 ft | 124 kts | 194° |
| 2026-05-05 12:46 | 13.67626 | 100.75698 | 15 ft | 89 kts | 194° |
| 2026-05-05 12:47 | 13.67145 | 100.75570 | 15 ft | 48 kts | 194° |
| 2026-05-05 12:47 | 13.66896 | 100.75504 | 15 ft | 23 kts | 194° |
| 2026-05-05 12:47 | 13.66752 | 100.75436 | 15 ft | 22 kts | 220° |
| 2026-05-05 12:47 | 13.66687 | 100.75321 | 15 ft | 14 kts | 279° |
| 2026-05-05 12:48 | 13.66776 | 100.75293 | 15 ft | 16 kts | 14° |
| 2026-05-05 12:48 | 13.66890 | 100.75324 | 15 ft | 17 kts | 14° |
| 2026-05-05 12:48 | 13.67011 | 100.75356 | 15 ft | 18 kts | 14° |
| 2026-05-05 12:48 | 13.67139 | 100.75390 | 15 ft | 19 kts | 14° |
| 2026-05-05 12:49 | 13.67275 | 100.75426 | 15 ft | 20 kts | 14° |
| 2026-05-05 12:49 | 13.67415 | 100.75463 | 15 ft | 21 kts | 14° |
| 2026-05-05 12:49 | 13.67561 | 100.75502 | 15 ft | 21 kts | 14° |
| 2026-05-05 12:49 | 13.67712 | 100.75540 | 15 ft | 22 kts | 14° |
| 2026-05-05 12:50 | 13.67866 | 100.75581 | 15 ft | 23 kts | 15° |
| 2026-05-05 12:50 | 13.68026 | 100.75624 | 15 ft | 23 kts | 14° |
| 2026-05-05 12:50 | 13.68190 | 100.75666 | 15 ft | 24 kts | 14° |
| 2026-05-05 12:50 | 13.68288 | 100.75681 | 15 ft | 10 kts | 340° |
| 2026-05-05 12:51 | 13.68332 | 100.75614 | 15 ft | 12 kts | 285° |
| 2026-05-05 12:51 | 13.68317 | 100.75525 | 15 ft | 13 kts | 235° |
| 2026-05-05 12:51 | 13.68286 | 100.75485 | 15 ft | 2 kts | 241° |
| 2026-05-05 12:51 | 13.68275 | 100.75447 | 15 ft | 11 kts | 261° |
| 2026-05-05 12:52 | 13.68290 | 100.75346 | 15 ft | 15 kts | 284° |
| 2026-05-05 12:52 | 13.68317 | 100.75232 | 15 ft | 17 kts | 283° |
| 2026-05-05 12:52 | 13.68346 | 100.75111 | 15 ft | 18 kts | 283° |
| 2026-05-05 12:52 | 13.68380 | 100.74985 | 15 ft | 15 kts | 286° |
| 2026-05-05 12:53 | 13.68398 | 100.74917 | 15 ft | 5 kts | 275° |
| 2026-05-05 12:53 | 13.68373 | 100.74889 | 15 ft | 6 kts | 203° |
| 2026-05-05 12:53 | 13.68333 | 100.74876 | 15 ft | 3 kts | 195° |
| 2026-05-05 12:53 | 13.68320 | 100.74873 | 15 ft | 0 kts | 195° |
| 2026-05-05 12:54 | 13.68317 | 100.74872 | 15 ft | 0 kts | 195° |